Time;durP1;ratioP1;P1;durP2;ratioP2;P2;SDS_P1;SDS_P2;PMS_P1;PMS_P2;Temp;Humidity;BMP_temperature;BMP_pressure;BME280_temperature;BME280_humidity;BME280_pressure;Samples;Min_cycle;Max_cycle;Signal;HPM_P1;HPM_P2
2021/03/27 00:05:42;;;;;;;6.00;2.57;;;12.10;99.90;;;;;;6723170;88;20229;-76
2021/03/27 00:16:01;;;;;;;3.80;2.03;;;11.90;99.90;;;;;;6717720;88;20213;-77
2021/03/27 00:26:22;;;;;;;3.53;1.48;;;10.80;99.90;;;;;;6726274;88;20182;-75
2021/03/27 00:36:54;;;;;;;2.67;1.05;;;9.50;99.90;;;;;;6718920;88;20699;-77
2021/03/27 00:46:57;;;;;;;2.53;1.00;;;8.90;99.90;;;;;;6718916;88;20219;-76
2021/03/27 00:57:10;;;;;;;3.72;1.05;;;8.10;99.90;;;;;;6730483;88;20193;-77
2021/03/27 01:07:13;;;;;;;1.52;0.90;;;7.60;99.90;;;;;;6726535;88;20219;-76
2021/03/27 01:17:19;;;;;;;1.60;0.88;;;7.40;99.90;;;;;;6723263;88;20238;-76
2021/03/27 01:27:57;;;;;;;1.50;0.80;;;7.30;99.90;;;;;;6727504;88;20234;-77
2021/03/27 01:38:14;;;;;;;2.12;1.00;;;7.20;99.90;;;;;;6723211;88;20179;-77
2021/03/27 01:48:28;;;;;;;0.93;0.40;;;7.10;99.90;;;;;;6722872;88;20182;-76
2021/03/27 01:59:09;;;;;;;1.35;0.43;;;6.80;99.90;;;;;;6729754;77;20214;-75
2021/03/27 02:09:24;;;;;;;0.98;0.50;;;6.80;99.90;;;;;;6759497;87;20183;-75
2021/03/27 02:20:03;;;;;;;1.60;0.60;;;6.70;99.90;;;;;;6755129;87;20201;-76
2021/03/27 02:30:21;;;;;;;1.52;0.60;;;6.70;99.90;;;;;;6749911;87;20652;-76
2021/03/27 02:40:30;;;;;;;0.62;0.30;;;6.80;99.90;;;;;;6759275;87;20637;-75
2021/03/27 02:50:57;;;;;;;1.48;0.60;;;6.80;99.90;;;;;;6758741;87;20222;-75
2021/03/27 03:01:18;;;;;;;0.60;0.30;;;6.70;99.90;;;;;;6754868;88;20210;-76
2021/03/27 03:11:31;;;;;;;1.65;0.30;;;6.70;99.90;;;;;;6759141;87;21081;-75
2021/03/27 03:21:54;;;;;;;1.75;0.40;;;6.60;99.90;;;;;;6762419;87;20192;-75
2021/03/27 03:32:31;;;;;;;2.42;0.57;;;6.50;99.90;;;;;;6760144;88;20251;-75
2021/03/27 03:43:04;;;;;;;4.33;1.13;;;6.30;99.90;;;;;;6768315;87;20231;-76
2021/03/27 03:53:32;;;;;;;6.68;0.70;;;6.40;99.90;;;;;;6765252;87;20185;-75
2021/03/27 04:03:50;;;;;;;2.30;0.60;;;6.40;99.90;;;;;;6759152;87;20220;-75
2021/03/27 04:13:54;;;;;;;2.75;0.60;;;6.30;99.90;;;;;;6754799;88;20806;-75
2021/03/27 04:24:01;;;;;;;2.87;0.70;;;6.30;99.90;;;;;;6756772;87;20241;-75
2021/03/27 04:34:12;;;;;;;3.97;0.77;;;6.20;99.90;;;;;;6756145;88;20666;-75
2021/03/27 04:44:30;;;;;;;2.92;0.60;;;6.10;99.90;;;;;;6759307;88;20184;-75
2021/03/27 04:54:48;;;;;;;4.10;0.52;;;6.10;99.90;;;;;;6759660;88;20173;-75
2021/03/27 05:05:19;;;;;;;2.80;0.45;;;6.00;99.90;;;;;;6761026;87;20211;-75
2021/03/27 05:15:38;;;;;;;3.95;0.70;;;5.80;99.90;;;;;;6755456;87;20177;-75
2021/03/27 05:25:44;;;;;;;4.87;0.95;;;5.70;99.90;;;;;;6758816;87;20338;-75
2021/03/27 05:36:08;;;;;;;5.82;0.80;;;5.60;99.90;;;;;;6759533;87;20208;-75
2021/03/27 05:46:27;;;;;;;5.82;0.88;;;5.90;99.90;;;;;;6759297;88;20230;-75
2021/03/27 05:56:50;;;;;;;6.25;0.93;;;6.20;99.90;;;;;;6753720;88;20620;-75
2021/03/27 06:07:30;;;;;;;4.62;0.90;;;6.30;99.90;;;;;;6758580;88;20222;-75
2021/03/27 06:17:59;;;;;;;2.70;0.60;;;6.30;99.90;;;;;;6754908;88;20985;-75
2021/03/27 06:28:18;;;;;;;4.05;0.80;;;6.30;99.90;;;;;;6758023;88;20249;-74
2021/03/27 06:38:25;;;;;;;7.22;1.12;;;6.50;99.90;;;;;;6760255;87;20337;-74
2021/03/27 06:48:37;;;;;;;;;;;6.90;99.90;;;;;;6760379;87;20476;-75
2021/03/27 06:58:54;;;;;;;4.90;1.37;;;7.10;99.90;;;;;;6757138;87;20150;-75
2021/03/27 07:09:21;;;;;;;5.15;0.80;;;7.00;99.90;;;;;;6756319;88;20659;-74
2021/03/27 07:20:09;;;;;;;3.83;0.50;;;6.30;99.90;;;;;;6761904;87;20245;-75
2021/03/27 07:30:27;;;;;;;2.93;0.40;;;3.90;99.90;;;;;;6762512;87;20526;-74
2021/03/27 07:40:34;;;;;;;2.83;0.40;;;3.20;99.90;;;;;;6771503;87;20180;-75
2021/03/27 07:51:03;;;;;;;0.87;0.30;;;3.30;99.90;;;;;;6772399;88;20196;-74
2021/03/27 08:01:19;;;;;;;3.55;0.30;;;3.50;99.90;;;;;;6695707;76;20249;-75
2021/03/27 08:11:42;;;;;;;3.95;0.45;;;3.90;99.90;;;;;;6670816;88;20266;-74
2021/03/27 08:22:28;;;;;;;2.95;0.60;;;4.50;99.90;;;;;;6662509;89;20719;-74
2021/03/27 08:32:40;;;;;;;3.22;0.35;;;4.80;99.90;;;;;;6676965;88;20222;-73
2021/03/27 08:43:22;;;;;;;2.83;0.73;;;5.20;99.90;;;;;;6658276;88;20213;-74
2021/03/27 08:53:41;;;;;;;3.17;0.70;;;6.00;99.90;;;;;;6662112;89;20183;-74
2021/03/27 09:04:15;;;;;;;6.55;0.93;;;7.10;99.90;;;;;;6664993;89;20323;-74
2021/03/27 09:14:42;;;;;;;6.35;0.90;;;8.30;99.90;;;;;;6678657;88;20717;-75
2021/03/27 09:25:02;;;;;;;4.57;1.20;;;8.90;99.90;;;;;;6666002;89;20291;-74
2021/03/27 09:35:29;;;;;;;6.30;1.02;;;9.20;99.90;;;;;;6664599;89;20220;-74
2021/03/27 09:45:51;;;;;;;10.68;1.40;;;9.50;99.90;;;;;;6654270;88;20752;-75
2021/03/27 09:56:24;;;;;;;8.60;1.30;;;10.40;99.90;;;;;;6656155;88;20274;-74
2021/03/27 10:07:01;;;;;;;2.87;0.90;;;9.50;99.90;;;;;;6661807;89;20195;-74
2021/03/27 10:17:24;;;;;;;6.47;1.20;;;10.00;99.90;;;;;;6657545;89;20217;-75
2021/03/27 10:27:40;;;;;;;7.00;1.20;;;10.50;99.90;;;;;;6661828;88;20310;-75
2021/03/27 10:37:50;;;;;;;3.87;1.00;;;10.70;98.10;;;;;;6656503;89;20217;-75
2021/03/27 10:48:05;;;;;;;4.53;0.80;;;11.20;99.00;;;;;;6661082;89;20222;-74
2021/03/27 10:58:21;;;;;;;4.15;0.70;;;10.60;99.60;;;;;;6660956;89;20701;-75
2021/03/27 11:08:42;;;;;;;3.40;0.60;;;8.40;99.90;;;;;;6660524;89;20715;-74
2021/03/27 11:19:02;;;;;;;4.55;0.77;;;7.70;99.90;;;;;;6659616;89;20189;-74
2021/03/27 11:29:27;;;;;;;3.65;0.60;;;6.80;99.90;;;;;;6662540;89;20219;-75
2021/03/27 11:40:03;;;;;;;2.85;0.90;;;8.30;99.90;;;;;;6661056;89;20211;-75
2021/03/27 11:50:16;;;;;;;4.68;0.70;;;9.50;99.90;;;;;;6676273;88;20688;-75
2021/03/27 12:01:00;;;;;;;2.67;1.10;;;11.00;99.90;;;;;;6659112;89;20187;-75
2021/03/27 12:11:46;;;;;;;2.40;0.57;;;10.90;99.90;;;;;;6667045;89;20180;-74
2021/03/27 12:22:00;;;;;;;3.08;0.75;;;10.00;99.90;;;;;;6661123;88;20189;-74
2021/03/27 12:32:09;;;;;;;2.80;0.88;;;9.90;98.10;;;;;;6660722;89;20172;-75
2021/03/27 12:42:27;;;;;;;5.45;0.90;;;9.80;99.90;;;;;;6660371;89;20217;-75
2021/03/27 12:52:46;;;;;;;4.95;0.98;;;9.70;99.90;;;;;;6666458;88;20650;-74
2021/03/27 13:03:28;;;;;;;3.87;0.82;;;9.40;99.90;;;;;;6676361;88;20207;-75
2021/03/27 13:13:47;;;;;;;3.42;0.60;;;9.50;99.90;;;;;;6656575;88;20672;-74
2021/03/27 13:24:00;;;;;;;2.83;0.80;;;7.80;99.90;;;;;;6660963;89;20196;-75
2021/03/27 13:34:21;;;;;;;2.78;0.70;;;6.00;99.90;;;;;;6660473;88;20258;-74
2021/03/27 13:44:28;;;;;;;1.48;0.50;;;7.50;99.90;;;;;;6658343;89;20203;-75
2021/03/27 13:54:29;;;;;;;2.33;0.80;;;8.90;99.90;;;;;;6660314;89;20290;-75
2021/03/27 14:04:38;;;;;;;3.05;0.90;;;9.80;99.90;;;;;;6666582;89;20336;-75
2021/03/27 14:15:02;;;;;;;2.35;0.80;;;10.40;99.90;;;;;;6689224;88;20258;-74
2021/03/27 14:25:25;;;;;;;5.65;0.93;;;10.20;96.20;;;;;;6703192;88;20176;-75
2021/03/27 14:35:49;;;;;;;4.00;1.05;;;10.90;94.00;;;;;;6663634;88;20224;-75
2021/03/27 14:46:17;;;;;;;3.70;1.08;;;11.80;94.30;;;;;;6652426;89;20201;-75
2021/03/27 14:56:32;;;;;;;4.47;1.12;;;11.30;93.50;;;;;;6663223;88;20238;-75
2021/03/27 15:06:52;;;;;;;3.25;0.98;;;12.30;90.10;;;;;;6652878;89;20194;-75
2021/03/27 15:17:18;;;;;;;3.72;0.90;;;12.20;85.20;;;;;;6653250;89;20229;-74
2021/03/27 15:27:20;;;;;;;4.63;1.00;;;12.50;83.60;;;;;;6658595;89;20252;-75
2021/03/27 15:37:37;;;;;;;4.35;0.90;;;12.80;78.70;;;;;;6658798;89;20687;-75
2021/03/27 15:47:41;;;;;;;4.00;1.08;;;12.20;78.60;;;;;;6663230;89;20325;-75
2021/03/27 15:57:52;;;;;;;6.82;1.10;;;11.40;76.90;;;;;;6661031;89;20229;-75
2021/03/27 16:07:57;;;;;;;4.78;1.10;;;11.10;78.80;;;;;;6662071;89;20615;-76
2021/03/27 16:18:35;;;;;;;5.75;1.00;;;10.40;80.70;;;;;;6660272;89;20334;-75
2021/03/27 16:28:49;;;;;;;4.15;1.00;;;10.60;78.40;;;;;;6660033;88;20216;-76
2021/03/27 16:39:06;;;;;;;4.80;0.98;;;10.90;79.90;;;;;;6656838;88;20184;-76
2021/03/27 16:49:13;;;;;;;3.03;0.90;;;10.80;77.10;;;;;;6657387;89;20278;-76
2021/03/27 16:59:59;;;;;;;3.72;1.10;;;10.30;76.10;;;;;;6660092;89;20772;-75
2021/03/27 17:10:04;;;;;;;5.32;1.27;;;10.00;85.60;;;;;;6651528;89;20240;-75
2021/03/27 17:20:20;;;;;;;4.85;1.30;;;9.40;94.20;;;;;;6665862;89;20207;-74
2021/03/27 17:30:33;;;;;;;4.28;1.20;;;9.10;96.50;;;;;;6651891;89;20180;-75
2021/03/27 17:40:42;;;;;;;8.18;2.67;;;8.90;97.50;;;;;;6656712;89;20212;-76
2021/03/27 17:50:58;;;;;;;6.32;1.25;;;8.70;99.30;;;;;;6663115;89;20783;-76
2021/03/27 18:01:13;;;;;;;5.43;1.50;;;8.60;99.90;;;;;;6665081;88;20661;-76
2021/03/27 18:11:20;;;;;;;7.18;1.70;;;8.30;99.90;;;;;;6661808;88;20318;-77
2021/03/27 18:21:27;;;;;;;5.45;1.60;;;8.10;99.90;;;;;;6659284;88;20270;-76
2021/03/27 18:31:58;;;;;;;5.03;1.65;;;8.00;99.90;;;;;;6661426;89;20203;-76
2021/03/27 18:42:10;;;;;;;5.65;1.70;;;7.90;99.90;;;;;;6663948;88;20213;-75
2021/03/27 18:52:16;;;;;;;7.68;1.80;;;7.70;99.90;;;;;;6658290;89;20804;-74
2021/03/27 19:02:20;;;;;;;6.50;2.10;;;7.60;99.90;;;;;;6658247;89;20233;-76
2021/03/27 19:12:41;;;;;;;8.98;1.98;;;7.40;99.90;;;;;;6660360;89;20595;-76
2021/03/27 19:23:17;;;;;;;9.15;1.98;;;7.50;99.90;;;;;;6664757;89;20303;-76
2021/03/27 19:33:20;;;;;;;7.93;1.90;;;7.30;99.90;;;;;;6658458;89;20600;-76
2021/03/27 19:43:28;;;;;;;7.20;1.60;;;7.10;99.90;;;;;;6662996;89;20313;-75
2021/03/27 19:53:47;;;;;;;9.68;2.03;;;7.00;99.90;;;;;;6659859;88;20714;-75
2021/03/27 20:15:06;;;;;;;5.05;1.42;;;6.90;99.90;;;;;;6683584;88;20199;-76
2021/03/27 20:25:25;;;;;;;8.00;1.20;;;6.70;99.90;;;;;;6680371;88;20794;-76
2021/03/27 20:35:28;;;;;;;6.05;1.62;;;6.80;99.90;;;;;;6682837;89;20198;-76
2021/03/27 20:45:37;;;;;;;7.65;1.70;;;7.00;99.90;;;;;;6687046;89;20200;-76
2021/03/27 20:55:45;;;;;;;3.85;1.40;;;6.90;99.90;;;;;;6682862;89;20373;-76
2021/03/27 21:05:51;;;;;;;6.53;1.27;;;6.90;99.90;;;;;;6674306;89;20290;-77
2021/03/27 21:16:16;;;;;;;9.00;1.58;;;7.00;99.90;;;;;;6679712;88;20203;-75
2021/03/27 21:26:36;;;;;;;6.18;1.70;;;6.90;99.90;;;;;;6688613;88;20187;-75
2021/03/27 21:36:41;;;;;;;8.75;1.25;;;6.80;99.90;;;;;;6687239;88;20188;-76
2021/03/27 21:46:47;;;;;;;6.57;1.42;;;6.70;99.90;;;;;;6679743;88;21036;-76
2021/03/27 21:56:51;;;;;;;5.00;1.40;;;6.50;99.90;;;;;;6687074;88;20338;-76
2021/03/27 22:07:02;;;;;;;5.03;1.40;;;6.60;99.90;;;;;;6679684;88;20255;-76
2021/03/27 22:17:34;;;;;;;6.55;1.92;;;6.40;99.90;;;;;;6684863;88;20348;-77
2021/03/27 22:27:40;;;;;;;7.87;1.48;;;6.20;99.90;;;;;;6686293;88;20692;-76
2021/03/27 22:37:54;;;;;;;7.55;1.65;;;6.20;99.90;;;;;;6683545;88;20183;-76
2021/03/27 22:47:57;;;;;;;5.35;1.30;;;6.30;99.90;;;;;;6687162;88;20187;-76
2021/03/27 22:58:21;;;;;;;13.02;1.67;;;6.30;99.90;;;;;;6682539;89;20330;-76
2021/03/27 23:08:25;;;;;;;6.90;1.50;;;6.30;99.90;;;;;;6683575;87;20796;-76
2021/03/27 23:18:53;;;;;;;6.30;1.27;;;6.40;99.90;;;;;;6700230;88;20291;-76
2021/03/27 23:29:02;;;;;;;7.57;1.50;;;6.40;99.90;;;;;;6749449;88;20220;-76
2021/03/27 23:39:22;;;;;;;10.55;1.62;;;6.30;99.90;;;;;;6754349;88;20200;-76
2021/03/27 23:49:57;;;;;;;7.62;1.58;;;6.40;99.90;;;;;;6751031;88;20471;-76
